createdAt,value
2022-11-26T00:02:29.988Z,96306.31
2022-11-26T00:04:58.921Z,96291.97
2022-11-26T00:07:29.645Z,96296.06
2022-11-26T00:09:58.653Z,96300.38
2022-11-26T00:12:28.599Z,96296.06
2022-11-26T00:14:55.758Z,96298.75
2022-11-26T00:17:23.325Z,96300.66
2022-11-26T00:19:50.539Z,96292.56
2022-11-26T00:22:32.504Z,96298.50
2022-11-26T00:24:59.715Z,96298.50
2022-11-26T00:27:28.412Z,96296.59
2022-11-26T00:29:55.691Z,96299.31
2022-11-26T00:32:25.371Z,96294.97
2022-11-26T00:34:53.271Z,96303.63
2022-11-26T00:37:35.949Z,96299.31
2022-11-26T00:40:03.288Z,96302.81
2022-11-26T00:42:30.411Z,96307.13
2022-11-26T00:44:57.463Z,96309.81
2022-11-26T00:47:24.584Z,96310.63
2022-11-26T00:49:51.633Z,96322.25
2022-11-26T00:52:33.787Z,96316.84
2022-11-26T00:55:06.405Z,96315.75
2022-11-26T00:57:33.623Z,96327.09
2022-11-26T01:00:00.670Z,96317.91
2022-11-26T01:02:27.928Z,96325.75
2022-11-26T01:04:54.954Z,96325.75
2022-11-26T01:07:22.108Z,96335.19
2022-11-26T01:09:49.360Z,96335.19
2022-11-26T01:12:16.401Z,96330.59
2022-11-26T01:14:43.582Z,96336.00
2022-11-26T01:17:12.053Z,96338.44
2022-11-26T01:19:39.201Z,96341.66
2022-11-26T01:22:06.262Z,96342.50
2022-11-26T01:24:33.491Z,96343.28
2022-11-26T01:27:00.571Z,96350.59
2022-11-26T01:29:27.709Z,96344.09
2022-11-26T01:31:54.859Z,96346.00
2022-11-26T01:34:22.047Z,96348.69
2022-11-26T01:36:49.113Z,96353.81
2022-11-26T01:39:19.626Z,96358.44
2022-11-26T01:42:07.283Z,96355.72
2022-11-26T01:44:36.715Z,96360.03
2022-11-26T01:47:21.517Z,96357.31
2022-11-26T01:50:26.136Z,96356.53
2022-11-26T01:52:59.913Z,96358.16
2022-11-26T01:55:35.987Z,96353.81
2022-11-26T01:58:05.711Z,96363.56
2022-11-26T02:00:33.316Z,96357.31
2022-11-26T02:03:01.329Z,96367.31
2022-11-26T02:05:31.522Z,96364.91
2022-11-26T02:07:59.185Z,96365.97
2022-11-26T02:10:26.346Z,96364.66
2022-11-26T02:12:53.504Z,96370.31
2022-11-26T02:15:23.310Z,96376.78
2022-11-26T02:18:03.870Z,96368.16
2022-11-26T02:21:03.299Z,96372.22
2022-11-26T02:24:04.098Z,96376.28
2022-11-26T02:27:19.919Z,96376.56
2022-11-26T02:30:05.453Z,96376.00
2022-11-26T02:33:01.736Z,96378.97
2022-11-26T02:35:41.745Z,96384.38
2022-11-26T02:38:18.627Z,96394.38
2022-11-26T02:40:45.727Z,96395.16
2022-11-26T02:43:15.315Z,96390.88
2022-11-26T02:46:05.173Z,96390.31
2022-11-26T02:48:36.926Z,96391.94
2022-11-26T02:51:10.014Z,96383.56
2022-11-26T02:53:39.101Z,96392.75
2022-11-26T02:56:14.257Z,96393.56
2022-11-26T02:58:41.892Z,96393.56
2022-11-26T03:01:35.300Z,96385.75
2022-11-26T03:04:09.381Z,96397.34
2022-11-26T03:06:38.436Z,96402.47
2022-11-26T03:09:06.816Z,96400.56
2022-11-26T03:11:34.393Z,96400.84
2022-11-26T03:14:01.649Z,96407.06
2022-11-26T03:16:28.788Z,96400.84
2022-11-26T03:18:56.112Z,96403.53
2022-11-26T03:21:23.300Z,96410.56
2022-11-26T03:23:50.365Z,96398.97
2022-11-26T03:26:17.649Z,96407.34
2022-11-26T03:28:44.800Z,96403.53
2022-11-26T03:31:11.873Z,96406.50
2022-11-26T03:33:39.027Z,96402.75
2022-11-26T03:36:06.460Z,96408.41
2022-11-26T03:38:33.545Z,96414.09
2022-11-26T03:41:04.902Z,96408.16
2022-11-26T03:43:32.154Z,96403.81
2022-11-26T03:45:59.325Z,96411.13
2022-11-26T03:48:26.435Z,96417.88
2022-11-26T03:50:53.488Z,96418.13
2022-11-26T03:53:20.559Z,96419.50
2022-11-26T03:55:47.893Z,96428.66
2022-11-26T03:58:14.909Z,96421.63
2022-11-26T04:00:42.053Z,96427.03
2022-11-26T04:03:09.297Z,96424.59
2022-11-26T04:05:36.413Z,96428.41
2022-11-26T04:08:03.565Z,96434.59
2022-11-26T04:10:30.750Z,96440.00
2022-11-26T04:12:58.070Z,96446.22
2022-11-26T04:15:25.189Z,96449.47
2022-11-26T04:17:52.240Z,96444.06
2022-11-26T04:20:19.406Z,96448.91
2022-11-26T04:22:46.504Z,96453.78
2022-11-26T04:25:13.691Z,96459.72
2022-11-26T04:27:40.822Z,96457.31
2022-11-26T04:30:09.238Z,96465.94
2022-11-26T04:32:36.327Z,96471.06
2022-11-26T04:35:03.651Z,96478.91
2022-11-26T04:37:34.172Z,96476.19
2022-11-26T04:40:01.457Z,96483.75
2022-11-26T04:42:28.438Z,96484.84
2022-11-26T04:44:55.553Z,96496.16
2022-11-26T04:47:22.631Z,96488.91
2022-11-26T04:49:49.827Z,96489.69
2022-11-26T04:52:16.905Z,96500.50
2022-11-26T04:54:44.012Z,96501.03
2022-11-26T04:57:11.229Z,96502.94
2022-11-26T04:59:38.444Z,96502.13
2022-11-26T05:02:05.638Z,96510.50
2022-11-26T05:04:32.753Z,96512.41
2022-11-26T05:06:59.920Z,96521.03
2022-11-26T05:09:27.296Z,96516.72
2022-11-26T05:11:54.379Z,96524.81
2022-11-26T05:14:21.512Z,96527.50
2022-11-26T05:16:48.707Z,96525.91
2022-11-26T05:19:16.366Z,96535.06
2022-11-26T05:21:43.460Z,96529.13
2022-11-26T05:24:10.505Z,96528.31
2022-11-26T05:26:37.691Z,96526.13
2022-11-26T05:29:04.850Z,96531.53
2022-11-26T05:31:32.004Z,96536.13
2022-11-26T05:33:59.165Z,96541.53
2022-11-26T05:36:26.212Z,96539.91
2022-11-26T05:38:53.481Z,96538.84
2022-11-26T05:41:20.667Z,96538.84
2022-11-26T05:43:47.814Z,96544.25
2022-11-26T05:46:17.541Z,96549.66
2022-11-26T05:48:44.976Z,96552.88
2022-11-26T05:51:12.031Z,96547.47
2022-11-26T05:53:39.141Z,96549.13
2022-11-26T05:56:06.362Z,96553.44
2022-11-26T05:58:33.422Z,96563.16
2022-11-26T06:01:00.571Z,96561.00
2022-11-26T06:03:27.800Z,96563.44
2022-11-26T06:05:55.093Z,96561.56
2022-11-26T06:08:22.134Z,96566.69
2022-11-26T06:10:49.302Z,96566.41
2022-11-26T06:13:16.786Z,96571.03
2022-11-26T06:15:43.872Z,96568.84
2022-11-26T06:18:11.057Z,96575.06
2022-11-26T06:20:38.695Z,96579.38
2022-11-26T06:23:05.762Z,96577.75
2022-11-26T06:25:32.882Z,96585.59
2022-11-26T06:28:00.036Z,96579.38
2022-11-26T06:30:27.340Z,96574.78
2022-11-26T06:32:54.442Z,96576.41
2022-11-26T06:35:21.606Z,96582.63
2022-11-26T06:37:48.770Z,96579.94
2022-11-26T06:40:19.215Z,96586.13
2022-11-26T06:42:53.432Z,96585.31
2022-11-26T06:45:22.385Z,96587.75
2022-11-26T06:47:51.629Z,96596.41
2022-11-26T06:50:21.122Z,96591.84
2022-11-26T06:52:54.670Z,96596.13
2022-11-26T06:55:22.275Z,96601.28
2022-11-26T06:57:50.933Z,96594.00
2022-11-26T07:00:18.330Z,96608.84
2022-11-26T07:02:45.602Z,96608.84
2022-11-26T07:05:12.756Z,96615.09
2022-11-26T07:07:40.135Z,96620.22
2022-11-26T07:10:08.162Z,96617.50
2022-11-26T07:12:35.200Z,96621.56
2022-11-26T07:15:02.253Z,96621.56
2022-11-26T07:17:29.640Z,96618.84
2022-11-26T07:19:56.647Z,96625.63
2022-11-26T07:22:23.736Z,96625.34
2022-11-26T07:24:50.932Z,96634.25
2022-11-26T07:27:18.050Z,96635.06
2022-11-26T07:29:45.181Z,96645.88
2022-11-26T07:32:12.423Z,96648.88
2022-11-26T07:34:39.608Z,96648.88
2022-11-26T07:37:06.849Z,96652.66
2022-11-26T07:39:33.899Z,96654.28
2022-11-26T07:42:01.037Z,96658.59
2022-11-26T07:44:28.093Z,96662.38
2022-11-26T07:46:55.249Z,96657.78
2022-11-26T07:49:22.314Z,96662.13
2022-11-26T07:51:49.499Z,96647.78
2022-11-26T07:54:16.513Z,96650.22
2022-11-26T07:56:43.573Z,96651.88
2022-11-26T07:59:11.154Z,96649.72
2022-11-26T08:01:38.293Z,96643.25
2022-11-26T08:04:06.382Z,96652.69
2022-11-26T08:06:34.210Z,96653.25
2022-11-26T08:09:02.301Z,96657.03
2022-11-26T08:11:32.352Z,96656.75
2022-11-26T08:14:04.905Z,96664.31
2022-11-26T08:16:32.629Z,96670.31
2022-11-26T08:19:03.686Z,96663.53
2022-11-26T08:21:30.983Z,96670.31
2022-11-26T08:23:58.087Z,96679.47
2022-11-26T08:26:33.500Z,96685.41
2022-11-26T08:29:01.190Z,96684.63
2022-11-26T08:31:28.736Z,96690.03
2022-11-26T08:33:58.081Z,96688.38
2022-11-26T08:36:26.371Z,96683.81
2022-11-26T08:38:53.490Z,96693.53
2022-11-26T08:41:21.066Z,96699.78
2022-11-26T08:46:36.896Z,96700.84
2022-11-26T08:49:04.787Z,96698.97
2022-11-26T08:51:31.870Z,96698.97
2022-11-26T08:54:02.225Z,96695.44
2022-11-26T08:56:29.444Z,96695.16
2022-11-26T08:58:56.506Z,96689.75
2022-11-26T09:01:26.048Z,96701.41
2022-11-26T09:03:56.273Z,96697.34
2022-11-26T09:06:25.415Z,96699.50
2022-11-26T09:08:52.561Z,96695.47
2022-11-26T09:11:19.857Z,96702.22
2022-11-26T09:13:46.870Z,96710.88
2022-11-26T09:16:14.032Z,96713.06
2022-11-26T09:18:41.186Z,96720.63
2022-11-26T09:21:08.239Z,96717.66
2022-11-26T09:23:35.383Z,96725.50
2022-11-26T09:26:02.704Z,96734.16
2022-11-26T09:28:29.817Z,96729.53
2022-11-26T09:30:58.090Z,96724.66
2022-11-26T09:33:25.783Z,96732.50
2022-11-26T09:35:53.341Z,96737.91
2022-11-26T09:38:20.451Z,96736.84
2022-11-26T09:40:56.870Z,96738.50
2022-11-26T09:43:36.031Z,96742.78
2022-11-26T09:46:03.952Z,96750.38
2022-11-26T09:48:33.762Z,96750.94
2022-11-26T09:51:08.498Z,96750.41
2022-11-26T09:53:40.533Z,96747.13
2022-11-26T09:56:13.447Z,96755.53
2022-11-26T09:58:48.531Z,96756.59
2022-11-26T10:01:20.948Z,96755.25
2022-11-26T10:03:48.318Z,96742.81
2022-11-26T10:06:30.350Z,96742.56
2022-11-26T10:09:05.877Z,96742.00
2022-11-26T10:11:37.704Z,96741.75
2022-11-26T10:14:23.529Z,96745.50
2022-11-26T10:17:17.392Z,96729.25
2022-11-26T10:20:15.564Z,96728.44
2022-11-26T10:22:56.871Z,96735.75
2022-11-26T10:25:29.391Z,96733.84
2022-11-26T10:27:59.177Z,96734.09
2022-11-26T10:30:29.143Z,96725.16
2022-11-26T10:33:00.737Z,96722.19
2022-11-26T10:35:29.516Z,96721.63
2022-11-26T10:37:57.317Z,96721.91
2022-11-26T10:40:27.153Z,96724.31
2022-11-26T10:43:06.248Z,96727.03
2022-11-26T10:45:37.751Z,96722.72
2022-11-26T10:48:27.697Z,96729.22
2022-11-26T10:50:57.750Z,96716.75
2022-11-26T10:53:26.676Z,96719.47
2022-11-26T10:55:57.416Z,96715.16
2022-11-26T10:58:27.937Z,96723.81
2022-11-26T11:00:59.126Z,96712.69
2022-11-26T11:06:27.934Z,96712.41
2022-11-26T11:08:55.435Z,96715.63
2022-11-26T11:11:24.218Z,96696.94
2022-11-26T11:13:51.827Z,96702.03
2022-11-26T11:16:39.136Z,96702.00
2022-11-26T11:19:21.657Z,96699.28
2022-11-26T11:21:49.060Z,96689.50
2022-11-26T11:24:23.687Z,96693.03
2022-11-26T11:26:52.637Z,96687.88
2022-11-26T11:29:33.135Z,96684.91
2022-11-26T11:32:03.962Z,96685.41
2022-11-26T11:34:40.637Z,96677.84
2022-11-26T11:37:16.151Z,96683.50
2022-11-26T11:39:43.756Z,96683.25
2022-11-26T11:42:25.830Z,96681.91
2022-11-26T11:44:52.981Z,96680.31
2022-11-26T11:47:36.407Z,96680.31
2022-11-26T11:50:38.210Z,96678.97
2022-11-26T11:53:17.546Z,96683.59
2022-11-26T11:55:58.092Z,96687.66
2022-11-26T11:58:45.316Z,96687.69
2022-11-26T12:01:48.690Z,96692.31
2022-11-26T12:04:43.886Z,96683.66
2022-11-26T12:07:20.090Z,96685.84
2022-11-26T12:09:59.139Z,96691.25
2022-11-26T12:12:31.569Z,96688.00
2022-11-26T12:15:04.635Z,96688.25
2022-11-26T12:17:34.659Z,96685.84
2022-11-26T12:20:14.496Z,96685.59
2022-11-26T12:22:46.277Z,96682.91
2022-11-26T12:25:35.160Z,96687.78
2022-11-26T12:28:14.228Z,96698.34
2022-11-26T12:30:53.762Z,96699.44
2022-11-26T12:33:27.135Z,96700.28
2022-11-26T12:35:59.260Z,96697.59
2022-11-26T12:38:52.346Z,96702.19
2022-11-26T12:41:24.750Z,96704.09
2022-11-26T12:44:04.359Z,96702.72
2022-11-26T12:46:42.630Z,96700.56
2022-11-26T12:49:28.488Z,96704.84
2022-11-26T12:52:29.531Z,96707.00
2022-11-26T12:55:05.580Z,96692.34
2022-11-26T12:57:45.944Z,96710.75
2022-11-26T13:00:25.301Z,96701.50
2022-11-26T13:02:53.945Z,96696.28
2022-11-26T13:05:29.777Z,96687.03
2022-11-26T13:08:18.072Z,96689.47
2022-11-26T13:11:11.306Z,96688.94
2022-11-26T13:13:53.429Z,96687.06
2022-11-26T13:16:35.393Z,96707.91
2022-11-26T13:19:10.207Z,96705.75
2022-11-26T13:21:49.872Z,96704.69
2022-11-26T13:24:26.585Z,96708.25
2022-11-26T13:27:20.339Z,96709.06
2022-11-26T13:29:57.910Z,96710.97
2022-11-26T13:32:48.129Z,96705.28
2022-11-26T13:35:29.461Z,96712.34
2022-11-26T13:38:13.784Z,96705.31
2022-11-26T13:41:13.043Z,96701.78
2022-11-26T13:44:18.307Z,96702.91
2022-11-26T13:47:08.844Z,96705.34
2022-11-26T13:49:55.004Z,96704.28
2022-11-26T13:52:35.664Z,96703.75
2022-11-26T13:55:11.920Z,96707.53
2022-11-26T13:57:43.880Z,96706.72
2022-11-26T14:00:14.414Z,96705.63
2022-11-26T14:02:43.605Z,96705.91
2022-11-26T14:05:14.419Z,96706.75
2022-11-26T14:07:43.500Z,96701.03
2022-11-26T14:10:35.331Z,96701.63
2022-11-26T14:13:02.396Z,96705.97
2022-11-26T14:15:41.768Z,96706.78
2022-11-26T14:18:13.689Z,96704.34
2022-11-26T14:20:59.232Z,96709.78
2022-11-26T14:23:40.972Z,96715.50
2022-11-26T14:26:19.088Z,96706.53
2022-11-26T14:28:46.239Z,96707.63
2022-11-26T14:31:15.585Z,96714.94
2022-11-26T14:33:44.250Z,96714.66
2022-11-26T14:36:21.392Z,96722.25
2022-11-26T14:39:09.468Z,96710.88
2022-11-26T14:41:42.535Z,96707.91
2022-11-26T14:44:17.882Z,96715.22
2022-11-26T14:46:48.328Z,96714.13
2022-11-26T14:49:18.358Z,96718.44
2022-11-26T14:51:47.901Z,96718.16
2022-11-26T14:54:24.300Z,96719.78
2022-11-26T14:56:51.401Z,96711.38
2022-11-26T14:59:19.237Z,96719.22
2022-11-26T15:01:46.627Z,96711.66
2022-11-26T15:04:25.033Z,96710.59
2022-11-26T15:06:52.229Z,96705.72
2022-11-26T15:09:22.153Z,96709.22
2022-11-26T15:12:11.171Z,96712.97
2022-11-26T15:14:42.821Z,96718.38
2022-11-26T15:17:15.801Z,96725.06
2022-11-26T15:19:43.800Z,96726.13
2022-11-26T15:22:34.263Z,96723.38
2022-11-26T15:25:01.863Z,96718.22
2022-11-26T15:27:36.106Z,96725.19
2022-11-26T15:30:24.726Z,96721.41
2022-11-26T15:33:10.093Z,96725.41
2022-11-26T15:35:37.600Z,96722.38
2022-11-26T15:38:14.400Z,96734.72
2022-11-26T15:41:19.120Z,96730.59
2022-11-26T15:43:50.273Z,96737.88
2022-11-26T15:46:22.116Z,96736.72
2022-11-26T15:48:53.746Z,96738.81
2022-11-26T15:51:38.240Z,96732.03
2022-11-26T15:54:38.394Z,96744.91
2022-11-26T15:57:26.060Z,96740.00
2022-11-26T15:59:55.156Z,96738.53
2022-11-26T16:02:24.967Z,96745.00
2022-11-26T16:04:57.360Z,96738.50
2022-11-26T16:07:27.365Z,96745.72
2022-11-26T16:10:16.338Z,96745.09
2022-11-26T16:12:43.497Z,96747.75
2022-11-26T16:15:25.289Z,96747.97
2022-11-26T16:17:53.637Z,96749.78
2022-11-26T16:20:24.082Z,96740.84
2022-11-26T16:22:54.228Z,96738.91
2022-11-26T16:25:21.590Z,96737.22
2022-11-26T16:28:13.385Z,96734.72
2022-11-26T16:30:42.977Z,96738.97
2022-11-26T16:33:10.196Z,96733.78
2022-11-26T16:35:46.138Z,96730.25
2022-11-26T16:38:21.705Z,96734.50
2022-11-26T16:40:49.721Z,96737.13
2022-11-26T16:43:17.330Z,96740.31
2022-11-26T16:45:44.601Z,96738.63
2022-11-26T16:48:24.022Z,96734.25
2022-11-26T16:50:55.531Z,96746.31
2022-11-26T16:53:23.586Z,96742.22
2022-11-26T16:55:53.027Z,96745.41
2022-11-26T16:58:32.488Z,96739.97
2022-11-26T17:00:59.844Z,96736.69
2022-11-26T17:03:27.830Z,96732.06
2022-11-26T17:05:56.467Z,96745.13
2022-11-26T17:08:23.837Z,96744.88
2022-11-26T17:10:50.959Z,96742.94
2022-11-26T17:13:18.620Z,96738.28
2022-11-26T17:15:46.148Z,96737.97
2022-11-26T17:18:23.063Z,96743.28
2022-11-26T17:20:51.207Z,96737.56
2022-11-26T17:23:18.465Z,96738.25
2022-11-26T17:25:48.476Z,96740.94
2022-11-26T17:28:15.713Z,96743.06
2022-11-26T17:30:44.649Z,96735.97
2022-11-26T17:33:12.125Z,96739.16
2022-11-26T17:35:39.290Z,96728.31
2022-11-26T17:38:21.140Z,96727.16
2022-11-26T17:40:48.413Z,96726.59
2022-11-26T17:43:15.581Z,96733.53
2022-11-26T17:45:42.982Z,96734.00
2022-11-26T17:48:13.111Z,96729.97
2022-11-26T17:50:40.903Z,96740.94
2022-11-26T17:53:08.196Z,96737.94
2022-11-26T17:55:35.519Z,96739.22
2022-11-26T17:58:02.564Z,96735.16
2022-11-26T18:00:29.878Z,96739.16
2022-11-26T18:02:57.697Z,96743.94
2022-11-26T18:05:24.932Z,96744.44
2022-11-26T18:07:52.136Z,96740.13
2022-11-26T18:10:21.510Z,96747.03
2022-11-26T18:12:49.493Z,96742.72
2022-11-26T18:15:19.516Z,96755.81
2022-11-26T18:17:52.388Z,96751.75
2022-11-26T18:20:22.940Z,96754.13
2022-11-26T18:22:52.480Z,96750.03
2022-11-26T18:25:19.622Z,96746.78
2022-11-26T18:27:46.950Z,96749.94
2022-11-26T18:30:15.154Z,96750.44
2022-11-26T18:32:42.312Z,96757.66
2022-11-26T18:35:10.166Z,96760.81
2022-11-26T18:37:38.695Z,96758.88
2022-11-26T18:40:11.904Z,96767.97
2022-11-26T18:42:39.175Z,96768.47
2022-11-26T18:45:08.368Z,96765.69
2022-11-26T18:47:35.451Z,96764.84
2022-11-26T18:50:02.545Z,96777.13
2022-11-26T18:52:29.636Z,96776.56
2022-11-26T18:54:56.821Z,96768.16
2022-11-26T18:57:23.933Z,96766.78
2022-11-26T18:59:51.425Z,96761.88
2022-11-26T19:02:18.580Z,96761.28
2022-11-26T19:04:45.928Z,96753.72
2022-11-26T19:07:13.365Z,96757.94
2022-11-26T19:09:40.768Z,96760.06
2022-11-26T19:12:08.259Z,96762.38
2022-11-26T19:14:35.300Z,96762.03
2022-11-26T19:17:02.590Z,96760.63
2022-11-26T19:19:29.659Z,96757.38
2022-11-26T19:22:00.728Z,96768.59
2022-11-26T19:24:29.603Z,96766.16
2022-11-26T19:26:56.832Z,96765.94
2022-11-26T19:29:24.067Z,96770.00
2022-11-26T19:31:51.246Z,96769.66
2022-11-26T19:34:18.403Z,96764.78
2022-11-26T19:36:45.636Z,96762.56
2022-11-26T19:39:12.656Z,96772.72
2022-11-26T19:41:39.933Z,96774.00
2022-11-26T19:44:07.150Z,96773.41
2022-11-26T19:46:36.700Z,96767.47
2022-11-26T19:49:04.085Z,96772.25
2022-11-26T19:51:31.151Z,96767.38
2022-11-26T19:53:58.709Z,96765.16
2022-11-26T19:56:28.518Z,96758.38
2022-11-26T19:58:56.100Z,96753.25
2022-11-26T20:01:23.877Z,96757.22
2022-11-26T20:03:51.350Z,96749.63
2022-11-26T20:06:21.556Z,96747.44
2022-11-26T20:08:49.797Z,96758.41
2022-11-26T20:11:17.990Z,96744.06
2022-11-26T20:13:47.219Z,96736.47
2022-11-26T20:16:20.388Z,96740.66
2022-11-26T20:18:48.187Z,96740.94
2022-11-26T20:21:21.650Z,96734.38
2022-11-26T20:23:50.278Z,96731.94
2022-11-26T20:26:17.309Z,96734.84
2022-11-26T20:28:44.918Z,96742.31
2022-11-26T20:31:13.654Z,96740.91
2022-11-26T20:33:41.549Z,96733.31
2022-11-26T20:36:10.856Z,96731.69
2022-11-26T20:38:37.923Z,96729.25
2022-11-26T20:41:10.117Z,96730.53
2022-11-26T20:43:37.997Z,96735.91
2022-11-26T20:46:06.961Z,96726.44
2022-11-26T20:48:35.602Z,96723.75
2022-11-26T20:51:05.356Z,96727.75
2022-11-26T20:53:34.441Z,96730.44
2022-11-26T20:56:02.553Z,96720.50
2022-11-26T20:58:29.582Z,96721.44
2022-11-26T21:00:57.053Z,96718.06
2022-11-26T21:03:26.032Z,96716.19
2022-11-26T21:05:53.233Z,96714.13
2022-11-26T21:08:22.761Z,96715.72
2022-11-26T21:10:50.493Z,96714.44
2022-11-26T21:13:18.829Z,96715.88
2022-11-26T21:15:46.617Z,96716.22
2022-11-26T21:18:14.254Z,96719.22
2022-11-26T21:20:42.830Z,96720.19
2022-11-26T21:23:10.928Z,96721.09
2022-11-26T21:25:39.984Z,96720.16
2022-11-26T21:28:07.955Z,96711.19
2022-11-26T21:30:35.533Z,96712.22
2022-11-26T21:33:08.790Z,96713.25
2022-11-26T21:35:37.201Z,96703.47
2022-11-26T21:38:05.673Z,96708.38
2022-11-26T21:40:33.036Z,96706.50
2022-11-26T21:43:00.258Z,96700.31
2022-11-26T21:45:27.404Z,96698.69
2022-11-26T21:47:54.776Z,96706.72
2022-11-26T21:50:21.858Z,96703.47
2022-11-26T21:52:49.105Z,96703.94
2022-11-26T21:55:16.208Z,96701.72
2022-11-26T21:57:43.212Z,96699.50
2022-11-26T22:00:10.748Z,96701.88
2022-11-26T22:02:38.043Z,96692.66
2022-11-26T22:05:05.342Z,96691.69
2022-11-26T22:07:32.524Z,96696.72
2022-11-26T22:09:59.671Z,96691.03
2022-11-26T22:12:26.989Z,96693.59
2022-11-26T22:14:54.106Z,96681.47
2022-11-26T22:17:21.170Z,96693.47
2022-11-26T22:19:48.330Z,96691.25
2022-11-26T22:22:15.409Z,96688.00
2022-11-26T22:24:42.603Z,96687.66
2022-11-26T22:27:10.255Z,96688.94
2022-11-26T22:29:37.997Z,96688.34
2022-11-26T22:32:05.205Z,96691.50
2022-11-26T22:34:32.285Z,96700.00
2022-11-26T22:36:59.464Z,96692.66
2022-11-26T22:39:26.544Z,96693.94
2022-11-26T22:41:53.674Z,96691.72
2022-11-26T22:44:20.700Z,96690.56
2022-11-26T22:46:47.987Z,96695.34
2022-11-26T22:49:16.622Z,96695.78
2022-11-26T22:51:43.869Z,96699.50
2022-11-26T22:54:13.500Z,96704.75
2022-11-26T22:56:40.981Z,96706.84
2022-11-26T22:59:10.558Z,96700.31
2022-11-26T23:01:38.368Z,96708.56
2022-11-26T23:04:08.468Z,96701.22
2022-11-26T23:06:36.559Z,96695.28
2022-11-26T23:09:06.450Z,96701.09
2022-11-26T23:11:37.060Z,96709.13
2022-11-26T23:14:05.306Z,96702.38
2022-11-26T23:16:32.555Z,96698.09
2022-11-26T23:18:59.692Z,96699.13
2022-11-26T23:21:32.577Z,96697.47
2022-11-26T23:24:00.144Z,96698.88
2022-11-26T23:26:32.060Z,96696.22
2022-11-26T23:29:01.026Z,96687.16
2022-11-26T23:31:37.562Z,96682.00
2022-11-26T23:34:05.287Z,96676.44
2022-11-26T23:36:33.437Z,96675.59
2022-11-26T23:39:02.127Z,96669.44
2022-11-26T23:41:29.693Z,96666.75
2022-11-26T23:43:57.129Z,96675.03
2022-11-26T23:46:27.244Z,96668.84
2022-11-26T23:48:54.714Z,96668.84
2022-11-26T23:51:24.740Z,96669.09
2022-11-26T23:53:52.905Z,96664.75
2022-11-26T23:56:29.129Z,96656.16
2022-11-26T23:58:59.390Z,96655.34
